Terminal Aerodrome Forecast
Issued by NWS Shreveport, LA

Home | Current Version | Previous Version | Text Only | Print | Product List | Glossary On
Versions: 1 2 3 4 5 6 7 8 9 10 11 12 13 14 15 16 17
000
FTUS44 KSHV 060520
TAFSHV
TAF
KSHV 060520Z 0606/0706 15008KT P6SM SCT060 BKN090 BKN250
     FM061200 15007KT P6SM SCT015 BKN100
      TEMPO 0612/0616 BKN015
     FM061600 15009KT P6SM BKN030
     FM061800 15010KT P6SM BKN040
     FM070100 15007KT P6SM SCT060 SCT100 BKN250=

USA.gov is the U.S. government's official web portal to all federal, state and local government web resources and services.